Aérodrome :







RETROUVEZ-NOUS SUR...

 
LOGIN :

S'inscrire | Disclaimer

   EN    FR    IT 

 









Légende :    VFR   VFR Marginal   IFR   IFR Intensif   IFR Très Intensif
Visi : 
Plafond : 
>= 8 km
>= 3000ft
5 à 8 km
1000 à 3000 ft
1500m à 5 km
500 à 1000 ft
800 à 1500m
200 à 500 ft
< 800m
< 200 ft
Symboles :   Orages  Brouillard  Fortes neiges  Fortes précipitations  Vent > 20 kt







- Altitude de l'aérodrome : 38 ft
- Code IATA : YMH


CYMH - Mary's Harbour

DERNIER METAR :
  • 251300Z AUTO 25007KT 9SM BKN130 18/07 A3013 RMK SLP203 DENSITY ALT 100FT

METARs EXPIRÉS :
  • 251200Z AUTO 25006KT 9SM FEW150 15/07 A3014 RMK SLP208
  • 251100Z AUTO 26003KT 220V300 9SM CLR 12/07 A3014 RMK SLP209

TAF TAF CYMH
Valide du 25 à 09h jusqu'au 25 à 21h UTC


250838Z 2509/2521 VRB03KT P6SM SKC
PROB30 2509/2511 11/2SM BR FEW002
FM251100 27008KT P6SM SCT200
BECMG 2514/2516 27012G22KT RMK FCST BASED ON AUTO OBS. NXT FCST BY 251400Z
Pas de NOTAMs connus pour ce terrain.



MET'MAP, la Météo Aéronautique d'un coup d'oeil ! - Copyright ORBIFLY Décembre 2007 - Disclaimer

ORBIFLY MET'MAP TEAM :

Programmation & Développement : Alexandra Zaïnal
Conception & Développement : Baudouin d'Aumeries
Co-Programmation & Développement : Marc-Olivier Méhu
Soutien technique & logistique : Manuel Goepfert

Contact : metmap@orbifly.com




SOURCES & CREDITS :

   NOAA